Terminal Aerodrome Forecast
Issued by NWS

Home | Current Version | Previous Version | Text Only | Print | Product List | Glossary On
Versions: 1 2 3 4 5 6 7 8 9 10 11 12 13 14 15 16 17 18 19 20 21 22 23 24 25
000
FTUS41 KOKX 251123
TAFGON
TAF
KGON 251123Z 2512/2612 29010KT P6SM SKC
     FM251400 29011G19KT P6SM SCT250
     FM252200 26008KT P6SM FEW050 SCT250
     FM260500 36004KT P6SM BKN250=

USA.gov is the U.S. government's official web portal to all federal, state and local government web resources and services.